createdAt,value
2022-12-25T00:01:24.532Z,14.33
2022-12-25T00:03:51.901Z,17.90
2022-12-25T00:06:19.276Z,12.13
2022-12-25T00:08:46.101Z,11.83
2022-12-25T00:11:15.058Z,13.33
2022-12-25T00:13:41.888Z,13.30
2022-12-25T00:16:11.395Z,16.20
2022-12-25T00:18:37.785Z,17.20
2022-12-25T00:21:06.775Z,19.27
2022-12-25T00:23:34.666Z,14.87
2022-12-25T00:26:05.690Z,12.37
2022-12-25T00:28:32.069Z,12.10
2022-12-25T00:30:58.483Z,22.60
2022-12-25T00:33:26.274Z,20.83
2022-12-25T00:36:00.253Z,20.97
2022-12-25T00:38:27.796Z,17.70
2022-12-25T00:40:54.920Z,18.93
2022-12-25T00:43:21.386Z,24.23
2022-12-25T00:46:14.313Z,17.67
2022-12-25T00:48:41.482Z,25.13
2022-12-25T00:51:11.083Z,13.60
2022-12-25T00:53:37.512Z,11.47
2022-12-25T00:56:06.647Z,21.63
2022-12-25T00:58:34.402Z,17.33
2022-12-25T01:01:01.199Z,19.80
2022-12-25T01:03:28.350Z,23.47
2022-12-25T01:05:57.346Z,12.13
2022-12-25T01:08:24.098Z,20.63
2022-12-25T01:10:57.913Z,19.97
2022-12-25T01:13:24.564Z,32.73
2022-12-25T01:15:52.784Z,18.07
2022-12-25T01:18:20.433Z,18.53
2022-12-25T01:20:47.090Z,18.17
2022-12-25T01:23:13.759Z,26.80
2022-12-25T01:25:40.600Z,18.20
2022-12-25T01:28:07.050Z,19.23
2022-12-25T01:30:33.596Z,20.63
2022-12-25T01:33:00.026Z,18.57
2022-12-25T01:35:26.662Z,29.97
2022-12-25T01:37:53.457Z,26.30
2022-12-25T01:40:19.881Z,18.60
2022-12-25T01:42:46.237Z,19.93
2022-12-25T01:45:31.689Z,27.13
2022-12-25T01:47:58.429Z,28.53
2022-12-25T01:50:25.013Z,20.10
2022-12-25T01:52:51.830Z,18.70
2022-12-25T01:55:18.493Z,31.13
2022-12-25T01:57:45.461Z,25.70
2022-12-25T02:00:13.427Z,20.67
2022-12-25T02:02:41.237Z,29.87
2022-12-25T02:05:27.652Z,28.60
2022-12-25T02:07:55.429Z,22.83
2022-12-25T02:10:23.248Z,16.93
2022-12-25T02:12:50.072Z,24.90
2022-12-25T02:15:22.175Z,22.47
2022-12-25T02:17:55.408Z,27.73
2022-12-25T02:20:33.179Z,25.73
2022-12-25T02:23:30.261Z,28.60
2022-12-25T02:26:33.295Z,23.13
2022-12-25T02:29:05.073Z,19.30
2022-12-25T02:32:00.397Z,20.40
2022-12-25T02:34:36.082Z,22.50
2022-12-25T02:37:12.682Z,29.00
2022-12-25T02:40:03.532Z,26.53
2022-12-25T02:43:05.293Z,18.53
2022-12-25T02:46:14.324Z,28.17
2022-12-25T02:49:03.875Z,27.77
2022-12-25T02:51:54.304Z,34.80
2022-12-25T02:54:45.941Z,25.53
2022-12-25T02:57:35.341Z,30.77
2022-12-25T03:00:21.208Z,24.77
2022-12-25T03:03:07.677Z,42.07
2022-12-25T03:05:57.775Z,34.30
2022-12-25T03:08:30.203Z,28.53
2022-12-25T03:11:25.358Z,28.80
2022-12-25T03:13:55.605Z,23.13
2022-12-25T03:16:54.823Z,19.97
2022-12-25T03:19:43.200Z,19.27
2022-12-25T03:22:34.608Z,37.27
2022-12-25T03:25:19.467Z,27.30
2022-12-25T03:27:48.970Z,22.33
2022-12-25T03:30:34.298Z,19.80
2022-12-25T03:33:43.873Z,24.40
2022-12-25T03:36:28.582Z,30.30
2022-12-25T03:39:39.408Z,25.23
2022-12-25T03:42:34.288Z,29.13
2022-12-25T03:45:26.572Z,24.10
2022-12-25T03:48:13.443Z,24.53
2022-12-25T03:51:13.311Z,31.33
2022-12-25T03:54:03.134Z,26.30
2022-12-25T03:56:50.395Z,23.70
2022-12-25T03:59:39.827Z,32.00
2022-12-25T04:02:25.219Z,28.67
2022-12-25T04:05:10.740Z,28.53
2022-12-25T04:07:57.435Z,28.00
2022-12-25T04:10:43.069Z,27.97
2022-12-25T04:13:27.770Z,32.13
2022-12-25T04:16:13.398Z,28.63
2022-12-25T04:18:58.183Z,33.33
2022-12-25T04:21:43.996Z,32.50
2022-12-25T04:24:29.882Z,34.80
2022-12-25T04:27:15.313Z,27.67
2022-12-25T04:30:00.378Z,25.10
2022-12-25T04:32:45.590Z,35.27
2022-12-25T04:35:31.250Z,26.63
2022-12-25T04:37:57.592Z,27.33
2022-12-25T04:40:23.984Z,30.30
2022-12-25T04:42:51.698Z,28.13
2022-12-25T04:45:18.341Z,32.87
2022-12-25T04:47:44.694Z,32.93
2022-12-25T04:50:11.367Z,26.93
2022-12-25T04:52:39.573Z,37.77
2022-12-25T04:55:07.281Z,26.53
2022-12-25T04:57:34.438Z,32.83
2022-12-25T05:00:00.822Z,26.03
2022-12-25T05:02:27.550Z,22.70
2022-12-25T05:04:53.968Z,29.77
2022-12-25T05:07:20.547Z,31.93
2022-12-25T05:09:46.881Z,30.20
2022-12-25T05:12:13.609Z,35.37
2022-12-25T05:14:40.078Z,27.23
2022-12-25T05:17:07.954Z,29.10
2022-12-25T05:19:34.699Z,20.73
2022-12-25T05:22:01.220Z,30.70
2022-12-25T05:24:28.092Z,32.90
2022-12-25T05:26:54.768Z,22.47
2022-12-25T05:29:21.119Z,29.37
2022-12-25T05:31:47.689Z,28.53
2022-12-25T05:34:14.075Z,25.00
2022-12-25T05:36:40.463Z,25.50
2022-12-25T05:39:06.812Z,32.63
2022-12-25T05:41:34.674Z,28.57
2022-12-25T05:44:01.536Z,42.23
2022-12-25T05:46:27.975Z,21.53
2022-12-25T05:48:54.357Z,33.00
2022-12-25T05:51:20.880Z,23.20
2022-12-25T05:53:47.307Z,30.20
2022-12-25T05:56:13.715Z,26.30
2022-12-25T05:58:40.887Z,23.67
2022-12-25T06:01:25.292Z,26.43
2022-12-25T06:03:52.241Z,25.30
2022-12-25T06:06:18.720Z,21.63
2022-12-25T06:08:45.378Z,20.77
2022-12-25T06:11:14.584Z,26.00
2022-12-25T06:13:41.076Z,22.60
2022-12-25T06:16:10.545Z,32.70
2022-12-25T06:18:43.998Z,21.10
2022-12-25T06:21:12.459Z,21.80
2022-12-25T06:23:39.528Z,36.80
2022-12-25T06:26:08.333Z,27.07
2022-12-25T06:28:34.942Z,22.47
2022-12-25T06:31:09.394Z,18.30
2022-12-25T06:33:36.429Z,18.43
2022-12-25T06:36:17.376Z,22.33
2022-12-25T06:38:43.950Z,28.03
2022-12-25T06:41:30.339Z,20.50
2022-12-25T06:43:59.225Z,23.23
2022-12-25T06:46:28.765Z,27.50
2022-12-25T06:48:55.461Z,15.87
2022-12-25T06:51:24.461Z,18.97
2022-12-25T06:53:51.918Z,18.00
2022-12-25T06:56:24.291Z,26.13
2022-12-25T06:58:53.794Z,18.37
2022-12-25T07:01:24.394Z,23.90
2022-12-25T07:03:56.164Z,22.77
2022-12-25T07:06:22.910Z,21.40
2022-12-25T07:08:49.464Z,17.97
2022-12-25T07:11:16.251Z,23.13
2022-12-25T07:13:42.604Z,20.43
2022-12-25T07:16:11.543Z,16.90
2022-12-25T07:18:38.195Z,22.90
2022-12-25T07:21:18.985Z,18.37
2022-12-25T07:23:46.966Z,16.07
2022-12-25T07:26:14.297Z,28.23
2022-12-25T07:28:40.834Z,21.40
2022-12-25T07:31:10.834Z,21.53
2022-12-25T07:33:37.574Z,25.93
2022-12-25T07:36:05.595Z,36.47
2022-12-25T07:38:32.211Z,31.70
2022-12-25T07:40:58.565Z,18.90
2022-12-25T07:43:25.380Z,18.73
2022-12-25T07:45:56.941Z,17.90
2022-12-25T07:48:23.470Z,20.20
2022-12-25T07:50:55.899Z,26.13
2022-12-25T07:53:22.269Z,29.10
2022-12-25T07:55:48.620Z,26.63
2022-12-25T07:58:18.578Z,21.63
2022-12-25T08:00:49.442Z,27.10
2022-12-25T08:03:16.912Z,25.03
2022-12-25T08:05:43.425Z,23.40
2022-12-25T08:08:09.810Z,22.63
2022-12-25T08:10:36.316Z,23.13
2022-12-25T08:13:02.791Z,19.80
2022-12-25T08:15:30.455Z,28.60
2022-12-25T08:17:56.967Z,18.80
2022-12-25T08:20:23.303Z,18.20
2022-12-25T08:22:49.676Z,24.70
2022-12-25T08:25:16.079Z,19.10
2022-12-25T08:27:42.435Z,18.63
2022-12-25T08:30:09.235Z,24.40
2022-12-25T08:32:35.753Z,18.93
2022-12-25T08:35:02.103Z,22.93
2022-12-25T08:37:30.360Z,18.97
2022-12-25T08:39:56.686Z,22.83
2022-12-25T08:42:23.051Z,19.73
2022-12-25T08:44:49.380Z,15.57
2022-12-25T08:47:15.948Z,18.50
2022-12-25T08:49:42.280Z,22.10
2022-12-25T08:52:08.860Z,16.53
2022-12-25T08:54:36.372Z,15.33
2022-12-25T08:57:03.946Z,18.50
2022-12-25T08:59:30.367Z,22.27
2022-12-25T09:01:56.918Z,16.00
2022-12-25T09:04:23.344Z,18.13
2022-12-25T09:06:51.190Z,13.43
2022-12-25T09:09:17.562Z,17.27
2022-12-25T09:11:43.939Z,18.40
2022-12-25T09:14:10.309Z,20.70
2022-12-25T09:16:36.869Z,19.73
2022-12-25T09:19:03.319Z,18.50
2022-12-25T09:21:32.688Z,28.00
2022-12-25T09:23:59.027Z,17.70
2022-12-25T09:26:27.298Z,19.43
2022-12-25T09:28:53.683Z,20.50
2022-12-25T09:31:22.157Z,11.53
2022-12-25T09:33:49.882Z,14.53
2022-12-25T09:36:16.559Z,23.30
2022-12-25T09:38:42.969Z,18.00
2022-12-25T09:41:31.532Z,13.63
2022-12-25T09:44:14.988Z,12.50
2022-12-25T09:46:47.244Z,18.90
2022-12-25T09:49:35.447Z,20.30
2022-12-25T09:52:08.335Z,25.70
2022-12-25T09:54:47.495Z,14.57
2022-12-25T09:57:14.883Z,18.90
2022-12-25T09:59:47.361Z,23.50
2022-12-25T10:03:00.850Z,21.57
2022-12-25T10:05:39.478Z,17.70
2022-12-25T10:08:25.991Z,18.77
2022-12-25T10:11:27.915Z,17.37
2022-12-25T10:14:15.330Z,18.63
2022-12-25T10:16:58.391Z,22.23
2022-12-25T10:19:40.573Z,14.77
2022-12-25T10:22:19.564Z,14.90
2022-12-25T10:24:50.499Z,17.37
2022-12-25T10:27:30.203Z,21.10
2022-12-25T10:29:56.633Z,21.40
2022-12-25T10:32:23.212Z,16.30
2022-12-25T10:34:50.064Z,19.80
2022-12-25T10:37:16.739Z,17.53
2022-12-25T10:39:46.638Z,13.53
2022-12-25T10:42:22.518Z,15.50
2022-12-25T10:45:04.520Z,23.20
2022-12-25T10:47:34.026Z,18.60
2022-12-25T10:50:07.556Z,18.23
2022-12-25T10:52:34.139Z,13.03
2022-12-25T10:55:11.551Z,14.17
2022-12-25T10:57:45.530Z,20.40
2022-12-25T11:00:38.737Z,24.67
2022-12-25T11:03:05.195Z,12.20
2022-12-25T11:05:34.176Z,11.53
2022-12-25T11:08:02.389Z,17.47
2022-12-25T11:10:31.765Z,25.43
2022-12-25T11:12:59.931Z,23.50
2022-12-25T11:15:37.507Z,22.03
2022-12-25T11:18:17.497Z,26.50
2022-12-25T11:21:14.542Z,25.97
2022-12-25T11:23:45.682Z,20.43
2022-12-25T11:26:12.370Z,20.27
2022-12-25T11:28:41.008Z,15.40
2022-12-25T11:31:19.784Z,16.50
2022-12-25T11:33:53.759Z,16.63
2022-12-25T11:36:28.597Z,14.10
2022-12-25T11:38:55.470Z,11.03
2022-12-25T11:41:30.430Z,11.47
2022-12-25T11:43:59.401Z,22.77
2022-12-25T11:46:40.208Z,16.93
2022-12-25T11:49:12.062Z,26.17
2022-12-25T11:51:41.863Z,12.23
2022-12-25T11:54:20.460Z,13.87
2022-12-25T11:56:46.973Z,19.00
2022-12-25T11:59:24.019Z,20.47
2022-12-25T12:02:24.084Z,16.70
2022-12-25T12:05:02.257Z,14.53
2022-12-25T12:07:31.970Z,14.53
2022-12-25T12:10:09.417Z,21.77
2022-12-25T12:12:54.430Z,16.40
2022-12-25T12:15:40.996Z,23.23
2022-12-25T12:18:25.541Z,12.63
2022-12-25T12:21:17.797Z,13.73
2022-12-25T12:24:09.508Z,15.37
2022-12-25T12:26:40.850Z,17.37
2022-12-25T12:29:20.953Z,14.40
2022-12-25T12:31:50.438Z,19.20
2022-12-25T12:34:42.574Z,13.87
2022-12-25T12:37:38.321Z,13.53
2022-12-25T12:40:08.626Z,13.80
2022-12-25T12:42:45.201Z,16.20
2022-12-25T12:45:25.073Z,15.43
2022-12-25T12:47:53.036Z,15.40
2022-12-25T12:50:39.925Z,14.87
2022-12-25T12:53:21.592Z,20.50
2022-12-25T12:55:48.355Z,16.70
2022-12-25T12:58:33.639Z,10.93
2022-12-25T13:01:27.800Z,16.77
2022-12-25T13:04:10.341Z,15.57
2022-12-25T13:06:45.083Z,13.80
2022-12-25T13:09:34.632Z,15.80
2022-12-25T13:12:06.880Z,10.37
2022-12-25T13:14:34.116Z,14.07
2022-12-25T13:17:00.781Z,12.40
2022-12-25T13:19:29.141Z,18.57
2022-12-25T13:22:03.680Z,11.57
2022-12-25T13:24:35.269Z,15.00
2022-12-25T13:27:15.916Z,22.70
2022-12-25T13:29:42.583Z,11.33
2022-12-25T13:32:20.775Z,10.10
2022-12-25T13:34:48.111Z,8.67
2022-12-25T13:37:16.770Z,18.17
2022-12-25T13:39:51.839Z,10.03
2022-12-25T13:42:22.461Z,16.63
2022-12-25T13:44:52.993Z,14.80
2022-12-25T13:47:24.267Z,13.13
2022-12-25T13:49:52.782Z,12.63
2022-12-25T13:52:23.171Z,9.77
2022-12-25T13:55:14.416Z,12.77
2022-12-25T13:57:52.725Z,13.80
2022-12-25T14:00:39.409Z,9.23
2022-12-25T14:03:07.657Z,17.10
2022-12-25T14:05:42.312Z,9.80
2022-12-25T14:08:15.875Z,12.87
2022-12-25T14:10:48.207Z,12.57
2022-12-25T14:13:15.762Z,15.23
2022-12-25T14:15:44.858Z,11.40
2022-12-25T14:18:15.964Z,14.27
2022-12-25T14:21:07.886Z,13.43
2022-12-25T14:23:49.388Z,11.20
2022-12-25T14:26:22.052Z,13.63
2022-12-25T14:28:50.318Z,17.40
2022-12-25T14:31:17.063Z,13.80
2022-12-25T14:33:43.847Z,17.87
2022-12-25T14:36:13.180Z,13.90
2022-12-25T14:38:42.488Z,12.47
2022-12-25T14:41:34.482Z,13.37
2022-12-25T14:44:04.312Z,13.63
2022-12-25T14:46:32.796Z,10.93
2022-12-25T14:49:20.898Z,19.67
2022-12-25T14:51:47.301Z,12.93
2022-12-25T14:54:22.460Z,13.20
2022-12-25T14:56:51.544Z,14.60
2022-12-25T14:59:20.757Z,16.27
2022-12-25T15:01:54.268Z,15.60
2022-12-25T15:04:22.510Z,22.77
2022-12-25T15:06:57.233Z,12.87
2022-12-25T15:09:24.062Z,12.40
2022-12-25T15:11:52.057Z,14.27
2022-12-25T15:14:18.990Z,19.60
2022-12-25T15:16:47.960Z,13.77
2022-12-25T15:19:26.528Z,12.63
2022-12-25T15:21:55.615Z,22.23
2022-12-25T15:24:22.107Z,16.03
2022-12-25T15:26:48.550Z,19.40
2022-12-25T15:29:14.960Z,22.43
2022-12-25T15:31:42.039Z,15.50
2022-12-25T15:34:20.874Z,21.50
2022-12-25T15:36:48.021Z,19.17
2022-12-25T15:39:14.600Z,17.43
2022-12-25T15:41:59.933Z,16.97
2022-12-25T15:44:26.482Z,17.30
2022-12-25T15:46:52.856Z,22.27
2022-12-25T15:49:19.408Z,17.30
2022-12-25T15:51:46.422Z,21.40
2022-12-25T15:54:13.021Z,16.73
2022-12-25T15:56:45.453Z,21.47
2022-12-25T15:59:13.436Z,22.80
2022-12-25T16:01:43.352Z,21.73
2022-12-25T16:04:09.900Z,15.83
2022-12-25T16:06:36.228Z,16.13
2022-12-25T16:09:02.575Z,20.83
2022-12-25T16:11:28.927Z,16.57
2022-12-25T16:13:55.496Z,19.60
2022-12-25T16:16:22.669Z,15.23
2022-12-25T16:18:49.166Z,19.13
2022-12-25T16:21:19.052Z,13.90
2022-12-25T16:23:45.661Z,19.00
2022-12-25T16:26:12.232Z,24.10
2022-12-25T16:28:38.648Z,19.10
2022-12-25T16:31:05.184Z,13.30
2022-12-25T16:33:31.813Z,28.27
2022-12-25T16:35:58.197Z,16.27
2022-12-25T16:38:24.745Z,14.70
2022-12-25T16:40:59.402Z,18.23
2022-12-25T16:43:26.238Z,25.67
2022-12-25T16:45:52.670Z,18.87
2022-12-25T16:48:19.333Z,19.57
2022-12-25T16:50:45.902Z,23.07
2022-12-25T16:53:15.294Z,20.43
2022-12-25T16:55:41.645Z,16.30
2022-12-25T16:58:08.080Z,17.40
2022-12-25T17:00:34.429Z,14.83
2022-12-25T17:03:01.503Z,17.20
2022-12-25T17:05:28.149Z,13.77
2022-12-25T17:07:54.519Z,15.37
2022-12-25T17:10:21.388Z,16.63
2022-12-25T17:12:48.028Z,14.63
2022-12-25T17:15:14.511Z,19.30
2022-12-25T17:17:41.647Z,15.73
2022-12-25T17:20:08.411Z,17.53
2022-12-25T17:22:34.988Z,15.20
2022-12-25T17:25:01.343Z,17.70
2022-12-25T17:27:27.733Z,16.03
2022-12-25T17:29:54.066Z,15.50
2022-12-25T17:32:20.552Z,15.60
2022-12-25T17:34:46.988Z,20.60
2022-12-25T17:37:13.389Z,17.90
2022-12-25T17:39:39.747Z,20.30
2022-12-25T17:42:06.228Z,15.13
2022-12-25T17:44:32.576Z,18.93
2022-12-25T17:46:59.059Z,14.73
2022-12-25T17:49:25.721Z,13.17
2022-12-25T17:51:53.720Z,15.70
2022-12-25T17:54:20.238Z,15.10
2022-12-25T17:56:46.662Z,17.57
2022-12-25T17:59:18.405Z,18.13
2022-12-25T18:01:46.828Z,24.47
2022-12-25T18:04:13.438Z,13.70
2022-12-25T18:06:39.844Z,19.73
2022-12-25T18:09:07.329Z,23.33
2022-12-25T18:11:34.048Z,19.73
2022-12-25T18:14:05.369Z,15.97
2022-12-25T18:16:34.432Z,18.67
2022-12-25T18:19:01.206Z,16.97
2022-12-25T18:21:28.304Z,11.93
2022-12-25T18:23:54.818Z,11.07
2022-12-25T18:26:21.709Z,16.43
2022-12-25T18:28:49.573Z,11.53
2022-12-25T18:31:20.348Z,12.00
2022-12-25T18:33:48.174Z,13.13
2022-12-25T18:36:19.928Z,16.13
2022-12-25T18:38:47.461Z,17.13
2022-12-25T18:41:14.071Z,13.67
2022-12-25T18:43:53.736Z,12.03
2022-12-25T18:46:26.683Z,9.93
2022-12-25T18:48:56.086Z,11.73
2022-12-25T18:51:23.235Z,12.53
2022-12-25T18:53:49.621Z,10.90
2022-12-25T18:56:17.827Z,17.50
2022-12-25T18:58:45.474Z,13.97
2022-12-25T19:01:23.656Z,19.30
2022-12-25T19:03:51.706Z,15.80
2022-12-25T19:06:20.995Z,18.00
2022-12-25T19:08:48.123Z,14.10
2022-12-25T19:11:14.966Z,13.00
2022-12-25T19:13:41.427Z,11.83
2022-12-25T19:16:08.232Z,14.57
2022-12-25T19:18:34.793Z,13.53
2022-12-25T19:21:05.689Z,12.80
2022-12-25T19:23:32.588Z,13.53
2022-12-25T19:25:59.191Z,13.93
2022-12-25T19:28:25.762Z,16.20
2022-12-25T19:30:54.024Z,14.57
2022-12-25T19:33:22.080Z,14.67
2022-12-25T19:35:48.947Z,17.20
2022-12-25T19:38:15.745Z,14.47
2022-12-25T19:40:59.898Z,14.13
2022-12-25T19:43:31.786Z,17.93
2022-12-25T19:45:58.241Z,14.80
2022-12-25T19:48:25.006Z,17.87
2022-12-25T19:50:51.842Z,14.47
2022-12-25T19:53:18.524Z,19.20
2022-12-25T19:55:44.918Z,22.53
2022-12-25T19:58:11.827Z,16.40
2022-12-25T20:00:38.274Z,18.00
2022-12-25T20:03:04.844Z,13.17
2022-12-25T20:05:31.338Z,14.07
2022-12-25T20:07:57.808Z,13.43
2022-12-25T20:10:24.272Z,17.40
2022-12-25T20:12:50.869Z,21.73
2022-12-25T20:15:17.337Z,18.17
2022-12-25T20:17:43.890Z,18.07
2022-12-25T20:20:10.737Z,15.30
2022-12-25T20:22:37.174Z,15.97
2022-12-25T20:25:04.296Z,16.10
2022-12-25T20:27:30.818Z,12.70
2022-12-25T20:29:57.211Z,17.90
2022-12-25T20:32:23.825Z,14.17
2022-12-25T20:34:50.313Z,16.90
2022-12-25T20:37:16.813Z,22.67
2022-12-25T20:39:43.407Z,20.80
2022-12-25T20:42:10.238Z,22.07
2022-12-25T20:44:36.948Z,18.77
2022-12-25T20:47:03.808Z,13.77
2022-12-25T20:49:32.400Z,10.40
2022-12-25T20:52:04.872Z,9.17
2022-12-25T20:54:32.308Z,11.53
2022-12-25T20:56:58.868Z,9.33
2022-12-25T20:59:25.320Z,11.20
2022-12-25T21:01:54.115Z,9.63
2022-12-25T21:04:20.665Z,7.90
2022-12-25T21:06:47.156Z,8.83
2022-12-25T21:09:13.655Z,9.20
2022-12-25T21:11:40.144Z,9.40
2022-12-25T21:14:06.538Z,10.73
2022-12-25T21:16:33.329Z,8.50
2022-12-25T21:18:59.733Z,9.20
2022-12-25T21:21:26.174Z,8.20
2022-12-25T21:23:55.693Z,9.20
2022-12-25T21:26:27.422Z,9.50
2022-12-25T21:28:57.344Z,8.50
2022-12-25T21:31:24.502Z,9.40
2022-12-25T21:33:57.580Z,10.40
2022-12-25T21:36:30.004Z,8.93
2022-12-25T21:39:02.215Z,10.00
2022-12-25T21:41:30.713Z,8.90
2022-12-25T21:43:57.169Z,9.47
2022-12-25T21:46:24.415Z,8.83
2022-12-25T21:48:51.139Z,8.60
2022-12-25T21:51:42.432Z,9.17
2022-12-25T21:54:09.499Z,8.87
2022-12-25T21:56:43.491Z,8.90
2022-12-25T21:59:13.464Z,8.60
2022-12-25T22:01:39.973Z,10.53
2022-12-25T22:04:08.401Z,10.40
2022-12-25T22:06:58.411Z,12.87
2022-12-25T22:09:25.045Z,13.40
2022-12-25T22:12:10.214Z,15.27
2022-12-25T22:14:54.747Z,15.97
2022-12-25T22:17:46.438Z,13.37
2022-12-25T22:20:19.347Z,12.30
2022-12-25T22:22:46.299Z,12.40
2022-12-25T22:25:13.595Z,13.67
2022-12-25T22:27:41.680Z,16.47
2022-12-25T22:30:11.507Z,16.00
2022-12-25T22:32:38.329Z,17.07
2022-12-25T22:35:05.465Z,13.70
2022-12-25T22:37:32.376Z,17.77
2022-12-25T22:40:00.638Z,13.13
2022-12-25T22:42:27.268Z,16.63
2022-12-25T22:44:53.608Z,16.83
2022-12-25T22:47:19.993Z,16.10
2022-12-25T22:49:46.334Z,20.30
2022-12-25T22:52:12.843Z,15.20
2022-12-25T22:54:39.336Z,16.07
2022-12-25T22:57:06.146Z,24.27
2022-12-25T22:59:32.907Z,12.67
2022-12-25T23:02:00.443Z,18.03
2022-12-25T23:04:27.995Z,14.57
2022-12-25T23:06:54.605Z,14.20
2022-12-25T23:09:29.261Z,9.77
2022-12-25T23:11:57.006Z,15.77
2022-12-25T23:14:39.706Z,24.80
2022-12-25T23:17:30.262Z,28.77
2022-12-25T23:20:16.521Z,20.23
2022-12-25T23:23:01.517Z,28.73
2022-12-25T23:25:47.750Z,16.70
2022-12-25T23:28:14.430Z,18.07
2022-12-25T23:30:40.859Z,42.30
2022-12-25T23:33:07.421Z,14.20
2022-12-25T23:35:33.781Z,36.00
2022-12-25T23:38:00.191Z,11.23
2022-12-25T23:40:26.579Z,19.50
2022-12-25T23:42:53.073Z,15.03
2022-12-25T23:45:19.442Z,13.07
2022-12-25T23:47:45.907Z,15.53
2022-12-25T23:50:12.271Z,20.80
2022-12-25T23:52:38.797Z,28.83
2022-12-25T23:55:05.715Z,35.23
2022-12-25T23:57:32.126Z,22.40
2022-12-25T23:59:58.680Z,11.30
